sensor_id;sensor_type;location;lat;lon;timestamp;P1;durP1;ratioP1;P2;durP2;ratioP2
61003;SDS011;46889;37.310;13.582;2022-11-09T00:01:28;4.32;;;1.65;;
61003;SDS011;46889;37.310;13.582;2022-11-09T00:03:56;5.13;;;1.98;;
61003;SDS011;46889;37.310;13.582;2022-11-09T00:06:23;4.82;;;1.55;;
61003;SDS011;46889;37.310;13.582;2022-11-09T00:08:50;4.80;;;1.80;;
61003;SDS011;46889;37.310;13.582;2022-11-09T00:11:17;4.90;;;1.55;;
61003;SDS011;46889;37.310;13.582;2022-11-09T00:13:45;5.53;;;1.60;;
61003;SDS011;46889;37.310;13.582;2022-11-09T00:16:13;8.85;;;1.90;;
61003;SDS011;46889;37.310;13.582;2022-11-09T00:18:42;3.92;;;1.67;;
61003;SDS011;46889;37.310;13.582;2022-11-09T00:21:15;8.25;;;2.00;;
61003;SDS011;46889;37.310;13.582;2022-11-09T00:23:43;6.07;;;1.88;;
61003;SDS011;46889;37.310;13.582;2022-11-09T00:26:10;5.25;;;1.73;;
61003;SDS011;46889;37.310;13.582;2022-11-09T00:28:38;5.93;;;1.70;;
61003;SDS011;46889;37.310;13.582;2022-11-09T00:31:06;5.20;;;1.45;;
61003;SDS011;46889;37.310;13.582;2022-11-09T00:33:35;5.22;;;1.60;;
61003;SDS011;46889;37.310;13.582;2022-11-09T00:36:05;7.78;;;1.83;;
61003;SDS011;46889;37.310;13.582;2022-11-09T00:38:35;5.53;;;2.00;;
61003;SDS011;46889;37.310;13.582;2022-11-09T00:41:05;5.90;;;1.77;;
61003;SDS011;46889;37.310;13.582;2022-11-09T00:43:32;4.82;;;1.70;;
61003;SDS011;46889;37.310;13.582;2022-11-09T00:45:59;6.95;;;2.05;;
61003;SDS011;46889;37.310;13.582;2022-11-09T00:48:25;3.83;;;1.93;;
61003;SDS011;46889;37.310;13.582;2022-11-09T00:50:55;7.40;;;2.30;;
61003;SDS011;46889;37.310;13.582;2022-11-09T00:53:21;6.22;;;1.80;;
61003;SDS011;46889;37.310;13.582;2022-11-09T00:55:55;4.70;;;1.80;;
61003;SDS011;46889;37.310;13.582;2022-11-09T00:58:41;5.50;;;1.73;;
61003;SDS011;46889;37.310;13.582;2022-11-09T01:01:08;3.37;;;1.70;;
61003;SDS011;46889;37.310;13.582;2022-11-09T01:03:39;5.13;;;1.50;;
61003;SDS011;46889;37.310;13.582;2022-11-09T01:06:19;8.35;;;1.73;;
61003;SDS011;46889;37.310;13.582;2022-11-09T01:08:47;4.97;;;1.77;;
61003;SDS011;46889;37.310;13.582;2022-11-09T01:11:15;10.35;;;1.95;;
61003;SDS011;46889;37.310;13.582;2022-11-09T01:13:42;5.90;;;1.98;;
61003;SDS011;46889;37.310;13.582;2022-11-09T01:16:10;4.43;;;2.00;;
61003;SDS011;46889;37.310;13.582;2022-11-09T01:18:39;4.55;;;1.90;;
61003;SDS011;46889;37.310;13.582;2022-11-09T01:21:06;4.65;;;2.20;;
61003;SDS011;46889;37.310;13.582;2022-11-09T01:23:35;4.57;;;2.20;;
61003;SDS011;46889;37.310;13.582;2022-11-09T01:26:06;4.63;;;2.10;;
61003;SDS011;46889;37.310;13.582;2022-11-09T01:28:34;4.22;;;2.13;;
61003;SDS011;46889;37.310;13.582;2022-11-09T01:31:01;7.20;;;2.63;;
61003;SDS011;46889;37.310;13.582;2022-11-09T01:33:30;5.72;;;2.50;;
61003;SDS011;46889;37.310;13.582;2022-11-09T01:36:19;6.15;;;2.33;;
61003;SDS011;46889;37.310;13.582;2022-11-09T01:38:46;5.53;;;2.35;;
61003;SDS011;46889;37.310;13.582;2022-11-09T01:41:22;6.65;;;2.63;;
61003;SDS011;46889;37.310;13.582;2022-11-09T01:44:09;5.32;;;2.55;;
61003;SDS011;46889;37.310;13.582;2022-11-09T01:46:38;7.63;;;2.67;;
61003;SDS011;46889;37.310;13.582;2022-11-09T01:52:09;11.00;;;2.80;;
61003;SDS011;46889;37.310;13.582;2022-11-09T01:54:53;8.40;;;3.05;;
61003;SDS011;46889;37.310;13.582;2022-11-09T01:57:25;8.88;;;3.30;;
61003;SDS011;46889;37.310;13.582;2022-11-09T02:00:03;9.02;;;2.97;;
61003;SDS011;46889;37.310;13.582;2022-11-09T02:02:35;8.02;;;3.10;;
61003;SDS011;46889;37.310;13.582;2022-11-09T02:05:06;7.82;;;3.33;;
61003;SDS011;46889;37.310;13.582;2022-11-09T02:07:36;8.80;;;3.45;;
61003;SDS011;46889;37.310;13.582;2022-11-09T02:10:14;6.00;;;3.35;;
61003;SDS011;46889;37.310;13.582;2022-11-09T02:12:52;11.45;;;3.55;;
61003;SDS011;46889;37.310;13.582;2022-11-09T02:15:19;6.80;;;3.40;;
61003;SDS011;46889;37.310;13.582;2022-11-09T02:20:15;8.80;;;3.55;;
61003;SDS011;46889;37.310;13.582;2022-11-09T02:22:43;6.60;;;3.60;;
61003;SDS011;46889;37.310;13.582;2022-11-09T02:25:11;6.07;;;3.45;;
61003;SDS011;46889;37.310;13.582;2022-11-09T02:27:39;6.25;;;3.47;;
61003;SDS011;46889;37.310;13.582;2022-11-09T02:30:08;7.07;;;3.28;;
61003;SDS011;46889;37.310;13.582;2022-11-09T02:32:37;7.20;;;3.30;;
61003;SDS011;46889;37.310;13.582;2022-11-09T02:35:04;6.00;;;3.72;;
61003;SDS011;46889;37.310;13.582;2022-11-09T02:37:33;5.95;;;3.28;;
61003;SDS011;46889;37.310;13.582;2022-11-09T02:40:15;7.93;;;3.80;;
61003;SDS011;46889;37.310;13.582;2022-11-09T02:42:46;6.47;;;3.28;;
61003;SDS011;46889;37.310;13.582;2022-11-09T02:47:38;12.90;;;4.50;;
61003;SDS011;46889;37.310;13.582;2022-11-09T02:50:04;9.70;;;3.93;;
61003;SDS011;46889;37.310;13.582;2022-11-09T02:52:32;6.30;;;3.88;;
61003;SDS011;46889;37.310;13.582;2022-11-09T02:54:58;12.40;;;4.53;;
61003;SDS011;46889;37.310;13.582;2022-11-09T02:57:24;7.97;;;4.30;;
61003;SDS011;46889;37.310;13.582;2022-11-09T02:59:50;6.33;;;3.77;;
61003;SDS011;46889;37.310;13.582;2022-11-09T03:02:16;6.70;;;4.10;;
61003;SDS011;46889;37.310;13.582;2022-11-09T03:04:42;9.03;;;4.10;;
61003;SDS011;46889;37.310;13.582;2022-11-09T03:07:08;6.57;;;4.10;;
61003;SDS011;46889;37.310;13.582;2022-11-09T03:09:34;9.07;;;4.37;;
61003;SDS011;46889;37.310;13.582;2022-11-09T03:12:00;6.30;;;3.63;;
61003;SDS011;46889;37.310;13.582;2022-11-09T03:14:49;7.88;;;3.67;;
61003;SDS011;46889;37.310;13.582;2022-11-09T03:17:15;7.27;;;3.43;;
61003;SDS011;46889;37.310;13.582;2022-11-09T03:19:43;9.50;;;3.80;;
61003;SDS011;46889;37.310;13.582;2022-11-09T03:22:09;9.40;;;3.72;;
61003;SDS011;46889;37.310;13.582;2022-11-09T03:24:35;6.27;;;3.53;;
61003;SDS011;46889;37.310;13.582;2022-11-09T03:27:01;5.40;;;3.40;;
61003;SDS011;46889;37.310;13.582;2022-11-09T03:29:29;8.32;;;3.20;;
61003;SDS011;46889;37.310;13.582;2022-11-09T03:31:55;5.43;;;2.93;;
61003;SDS011;46889;37.310;13.582;2022-11-09T03:34:21;4.53;;;2.53;;
61003;SDS011;46889;37.310;13.582;2022-11-09T03:36:47;5.37;;;3.20;;
61003;SDS011;46889;37.310;13.582;2022-11-09T03:39:13;7.17;;;3.30;;
61003;SDS011;46889;37.310;13.582;2022-11-09T03:41:39;6.93;;;3.37;;
61003;SDS011;46889;37.310;13.582;2022-11-09T03:44:05;4.53;;;2.90;;
61003;SDS011;46889;37.310;13.582;2022-11-09T03:46:32;5.30;;;2.72;;
61003;SDS011;46889;37.310;13.582;2022-11-09T03:48:58;5.78;;;3.28;;
61003;SDS011;46889;37.310;13.582;2022-11-09T03:51:26;7.35;;;3.20;;
61003;SDS011;46889;37.310;13.582;2022-11-09T03:54:04;9.70;;;3.80;;
61003;SDS011;46889;37.310;13.582;2022-11-09T03:56:30;7.38;;;3.42;;
61003;SDS011;46889;37.310;13.582;2022-11-09T03:58:56;5.63;;;2.93;;
61003;SDS011;46889;37.310;13.582;2022-11-09T04:01:22;7.40;;;3.50;;
61003;SDS011;46889;37.310;13.582;2022-11-09T04:03:48;11.77;;;3.53;;
61003;SDS011;46889;37.310;13.582;2022-11-09T04:06:14;9.53;;;3.77;;
61003;SDS011;46889;37.310;13.582;2022-11-09T04:08:41;6.60;;;3.50;;
61003;SDS011;46889;37.310;13.582;2022-11-09T04:11:07;6.43;;;3.30;;
61003;SDS011;46889;37.310;13.582;2022-11-09T04:13:33;6.07;;;3.00;;
61003;SDS011;46889;37.310;13.582;2022-11-09T04:15:59;6.73;;;3.40;;
61003;SDS011;46889;37.310;13.582;2022-11-09T04:18:25;6.03;;;3.53;;
61003;SDS011;46889;37.310;13.582;2022-11-09T04:20:51;6.47;;;3.50;;
61003;SDS011;46889;37.310;13.582;2022-11-09T04:23:17;7.82;;;2.85;;
61003;SDS011;46889;37.310;13.582;2022-11-09T04:25:43;7.43;;;3.13;;
61003;SDS011;46889;37.310;13.582;2022-11-09T04:28:10;6.90;;;3.37;;
61003;SDS011;46889;37.310;13.582;2022-11-09T04:30:37;7.55;;;3.25;;
61003;SDS011;46889;37.310;13.582;2022-11-09T04:33:03;7.55;;;2.65;;
61003;SDS011;46889;37.310;13.582;2022-11-09T04:35:30;6.50;;;3.10;;
61003;SDS011;46889;37.310;13.582;2022-11-09T04:37:59;4.50;;;2.45;;
61003;SDS011;46889;37.310;13.582;2022-11-09T04:40:30;6.13;;;2.72;;
61003;SDS011;46889;37.310;13.582;2022-11-09T04:43:00;7.55;;;3.28;;
61003;SDS011;46889;37.310;13.582;2022-11-09T04:45:29;5.20;;;3.20;;
61003;SDS011;46889;37.310;13.582;2022-11-09T04:47:57;7.47;;;3.13;;
61003;SDS011;46889;37.310;13.582;2022-11-09T04:52:50;7.03;;;3.55;;
61003;SDS011;46889;37.310;13.582;2022-11-09T04:55:16;7.50;;;3.55;;
61003;SDS011;46889;37.310;13.582;2022-11-09T04:57:42;4.78;;;3.05;;
61003;SDS011;46889;37.310;13.582;2022-11-09T05:00:08;5.80;;;3.03;;
61003;SDS011;46889;37.310;13.582;2022-11-09T05:02:36;6.63;;;3.55;;
61003;SDS011;46889;37.310;13.582;2022-11-09T05:05:03;6.78;;;3.53;;
61003;SDS011;46889;37.310;13.582;2022-11-09T05:07:29;7.75;;;4.18;;
61003;SDS011;46889;37.310;13.582;2022-11-09T05:09:55;7.25;;;3.53;;
61003;SDS011;46889;37.310;13.582;2022-11-09T05:12:21;7.65;;;3.72;;
61003;SDS011;46889;37.310;13.582;2022-11-09T05:14:47;8.10;;;4.00;;
61003;SDS011;46889;37.310;13.582;2022-11-09T05:17:20;7.63;;;4.20;;
61003;SDS011;46889;37.310;13.582;2022-11-09T05:19:47;9.60;;;4.55;;
61003;SDS011;46889;37.310;13.582;2022-11-09T05:22:13;9.20;;;4.53;;
61003;SDS011;46889;37.310;13.582;2022-11-09T05:24:57;6.93;;;4.00;;
61003;SDS011;46889;37.310;13.582;2022-11-09T05:27:23;7.87;;;4.33;;
61003;SDS011;46889;37.310;13.582;2022-11-09T05:29:49;8.03;;;4.53;;
61003;SDS011;46889;37.310;13.582;2022-11-09T05:35:47;8.25;;;4.50;;
61003;SDS011;46889;37.310;13.582;2022-11-09T05:38:13;7.18;;;4.68;;
61003;SDS011;46889;37.310;13.582;2022-11-09T05:40:48;6.63;;;3.80;;
61003;SDS011;46889;37.310;13.582;2022-11-09T05:52:35;7.15;;;4.38;;
61003;SDS011;46889;37.310;13.582;2022-11-09T06:00:50;9.37;;;4.70;;
61003;SDS011;46889;37.310;13.582;2022-11-09T06:09:35;9.52;;;4.90;;
61003;SDS011;46889;37.310;13.582;2022-11-09T06:15:16;8.35;;;4.65;;
61003;SDS011;46889;37.310;13.582;2022-11-09T06:20:27;8.07;;;4.38;;
61003;SDS011;46889;37.310;13.582;2022-11-09T06:22:53;7.22;;;3.90;;
61003;SDS011;46889;37.310;13.582;2022-11-09T06:25:47;8.02;;;4.60;;
61003;SDS011;46889;37.310;13.582;2022-11-09T06:31:17;6.53;;;4.07;;
61003;SDS011;46889;37.310;13.582;2022-11-09T06:36:11;9.77;;;4.18;;
61003;SDS011;46889;37.310;13.582;2022-11-09T06:38:37;8.25;;;4.10;;
61003;SDS011;46889;37.310;13.582;2022-11-09T06:41:03;8.48;;;4.07;;
61003;SDS011;46889;37.310;13.582;2022-11-09T06:43:29;6.15;;;3.60;;
61003;SDS011;46889;37.310;13.582;2022-11-09T06:45:55;8.15;;;3.75;;
61003;SDS011;46889;37.310;13.582;2022-11-09T06:48:22;8.00;;;4.35;;
61003;SDS011;46889;37.310;13.582;2022-11-09T06:50:48;7.22;;;3.55;;
61003;SDS011;46889;37.310;13.582;2022-11-09T06:53:16;5.47;;;3.45;;
61003;SDS011;46889;37.310;13.582;2022-11-09T06:55:42;6.90;;;3.45;;
61003;SDS011;46889;37.310;13.582;2022-11-09T06:58:10;5.32;;;2.78;;
61003;SDS011;46889;37.310;13.582;2022-11-09T07:00:40;9.38;;;3.00;;
61003;SDS011;46889;37.310;13.582;2022-11-09T07:03:06;7.70;;;3.70;;
61003;SDS011;46889;37.310;13.582;2022-11-09T07:05:37;6.95;;;3.10;;
61003;SDS011;46889;37.310;13.582;2022-11-09T07:08:04;5.13;;;2.85;;
61003;SDS011;46889;37.310;13.582;2022-11-09T07:10:30;5.45;;;3.25;;
61003;SDS011;46889;37.310;13.582;2022-11-09T07:12:59;6.88;;;3.10;;
61003;SDS011;46889;37.310;13.582;2022-11-09T07:15:27;6.40;;;3.55;;
61003;SDS011;46889;37.310;13.582;2022-11-09T07:17:57;9.18;;;3.35;;
61003;SDS011;46889;37.310;13.582;2022-11-09T07:20:24;9.48;;;3.17;;
61003;SDS011;46889;37.310;13.582;2022-11-09T07:22:50;8.65;;;2.88;;
61003;SDS011;46889;37.310;13.582;2022-11-09T07:25:17;12.23;;;3.10;;
61003;SDS011;46889;37.310;13.582;2022-11-09T07:27:43;5.47;;;3.28;;
61003;SDS011;46889;37.310;13.582;2022-11-09T07:30:10;7.93;;;3.42;;
61003;SDS011;46889;37.310;13.582;2022-11-09T07:35:03;8.05;;;3.10;;
61003;SDS011;46889;37.310;13.582;2022-11-09T07:37:30;5.65;;;3.17;;
61003;SDS011;46889;37.310;13.582;2022-11-09T07:42:23;5.80;;;3.05;;
61003;SDS011;46889;37.310;13.582;2022-11-09T07:44:50;6.65;;;3.03;;
61003;SDS011;46889;37.310;13.582;2022-11-09T07:47:17;9.00;;;3.22;;
61003;SDS011;46889;37.310;13.582;2022-11-09T07:49:45;7.18;;;3.20;;
61003;SDS011;46889;37.310;13.582;2022-11-09T07:52:11;7.53;;;2.85;;
61003;SDS011;46889;37.310;13.582;2022-11-09T07:54:39;10.10;;;3.08;;
61003;SDS011;46889;37.310;13.582;2022-11-09T07:57:06;8.05;;;2.90;;
61003;SDS011;46889;37.310;13.582;2022-11-09T07:59:32;8.35;;;3.28;;
61003;SDS011;46889;37.310;13.582;2022-11-09T08:01:58;9.73;;;2.88;;
61003;SDS011;46889;37.310;13.582;2022-11-09T08:04:24;6.68;;;2.60;;
61003;SDS011;46889;37.310;13.582;2022-11-09T08:06:51;7.13;;;2.80;;
61003;SDS011;46889;37.310;13.582;2022-11-09T08:11:43;8.10;;;2.78;;
61003;SDS011;46889;37.310;13.582;2022-11-09T08:14:09;7.80;;;2.47;;
61003;SDS011;46889;37.310;13.582;2022-11-09T08:16:35;8.07;;;3.00;;
61003;SDS011;46889;37.310;13.582;2022-11-09T08:19:01;8.18;;;2.72;;
61003;SDS011;46889;37.310;13.582;2022-11-09T08:21:33;8.52;;;2.83;;
61003;SDS011;46889;37.310;13.582;2022-11-09T08:24:00;6.45;;;2.50;;
61003;SDS011;46889;37.310;13.582;2022-11-09T08:26:26;5.65;;;2.25;;
61003;SDS011;46889;37.310;13.582;2022-11-09T08:28:52;7.95;;;2.47;;
61003;SDS011;46889;37.310;13.582;2022-11-09T08:31:26;6.32;;;2.42;;
61003;SDS011;46889;37.310;13.582;2022-11-09T08:33:52;10.32;;;2.53;;
61003;SDS011;46889;37.310;13.582;2022-11-09T08:36:18;8.48;;;3.05;;
61003;SDS011;46889;37.310;13.582;2022-11-09T08:38:44;9.18;;;2.92;;
61003;SDS011;46889;37.310;13.582;2022-11-09T08:41:11;9.38;;;3.47;;
61003;SDS011;46889;37.310;13.582;2022-11-09T08:43:38;7.40;;;2.83;;
61003;SDS011;46889;37.310;13.582;2022-11-09T08:46:04;8.98;;;2.50;;
61003;SDS011;46889;37.310;13.582;2022-11-09T08:48:30;9.13;;;2.65;;
61003;SDS011;46889;37.310;13.582;2022-11-09T08:50:58;6.95;;;2.42;;
61003;SDS011;46889;37.310;13.582;2022-11-09T08:53:26;7.60;;;3.05;;
61003;SDS011;46889;37.310;13.582;2022-11-09T08:55:53;6.63;;;2.70;;
61003;SDS011;46889;37.310;13.582;2022-11-09T08:58:19;9.25;;;3.00;;
61003;SDS011;46889;37.310;13.582;2022-11-09T09:03:12;6.93;;;2.47;;
61003;SDS011;46889;37.310;13.582;2022-11-09T09:05:38;9.07;;;2.67;;
61003;SDS011;46889;37.310;13.582;2022-11-09T09:08:05;6.82;;;2.45;;
61003;SDS011;46889;37.310;13.582;2022-11-09T09:10:33;10.95;;;3.03;;
61003;SDS011;46889;37.310;13.582;2022-11-09T09:13:00;11.70;;;2.90;;
61003;SDS011;46889;37.310;13.582;2022-11-09T09:15:27;6.95;;;2.53;;
61003;SDS011;46889;37.310;13.582;2022-11-09T09:18:00;7.13;;;2.55;;
61003;SDS011;46889;37.310;13.582;2022-11-09T09:20:27;7.78;;;2.58;;
61003;SDS011;46889;37.310;13.582;2022-11-09T09:22:56;6.32;;;2.25;;
61003;SDS011;46889;37.310;13.582;2022-11-09T09:25:23;7.28;;;2.35;;
61003;SDS011;46889;37.310;13.582;2022-11-09T09:30:16;7.45;;;2.03;;
61003;SDS011;46889;37.310;13.582;2022-11-09T09:32:42;13.13;;;3.10;;
61003;SDS011;46889;37.310;13.582;2022-11-09T09:35:08;9.52;;;2.58;;
61003;SDS011;46889;37.310;13.582;2022-11-09T09:37:34;7.40;;;1.67;;
61003;SDS011;46889;37.310;13.582;2022-11-09T09:40:00;9.30;;;1.92;;
61003;SDS011;46889;37.310;13.582;2022-11-09T09:42:29;8.68;;;1.92;;
61003;SDS011;46889;37.310;13.582;2022-11-09T09:50:20;5.90;;;1.63;;
61003;SDS011;46889;37.310;13.582;2022-11-09T09:55:38;10.20;;;2.42;;
61003;SDS011;46889;37.310;13.582;2022-11-09T09:58:12;9.70;;;2.60;;
61003;SDS011;46889;37.310;13.582;2022-11-09T10:00:43;8.60;;;1.83;;
61003;SDS011;46889;37.310;13.582;2022-11-09T10:03:13;9.52;;;2.20;;
61003;SDS011;46889;37.310;13.582;2022-11-09T10:06:02;6.63;;;2.60;;
61003;SDS011;46889;37.310;13.582;2022-11-09T10:08:53;6.78;;;2.03;;
61003;SDS011;46889;37.310;13.582;2022-11-09T10:17:20;10.23;;;2.50;;
61003;SDS011;46889;37.310;13.582;2022-11-09T10:26:07;10.23;;;2.50;;
61003;SDS011;46889;37.310;13.582;2022-11-09T10:28:37;7.80;;;2.22;;
61003;SDS011;46889;37.310;13.582;2022-11-09T10:31:11;12.20;;;2.05;;
61003;SDS011;46889;37.310;13.582;2022-11-09T10:33:44;6.00;;;2.10;;
61003;SDS011;46889;37.310;13.582;2022-11-09T10:38:53;9.68;;;2.08;;
61003;SDS011;46889;37.310;13.582;2022-11-09T10:41:32;8.73;;;2.70;;
61003;SDS011;46889;37.310;13.582;2022-11-09T10:44:16;9.07;;;2.10;;
61003;SDS011;46889;37.310;13.582;2022-11-09T10:49:33;18.60;;;7.72;;
61003;SDS011;46889;37.310;13.582;2022-11-09T10:58:14;7.30;;;1.85;;
61003;SDS011;46889;37.310;13.582;2022-11-09T11:01:21;13.23;;;2.20;;
61003;SDS011;46889;37.310;13.582;2022-11-09T11:03:53;12.05;;;2.65;;
61003;SDS011;46889;37.310;13.582;2022-11-09T11:08:48;6.03;;;1.80;;
61003;SDS011;46889;37.310;13.582;2022-11-09T11:11:30;11.73;;;2.20;;
61003;SDS011;46889;37.310;13.582;2022-11-09T11:14:08;9.98;;;1.50;;
61003;SDS011;46889;37.310;13.582;2022-11-09T11:16:56;8.70;;;1.40;;
61003;SDS011;46889;37.310;13.582;2022-11-09T11:19:36;7.40;;;1.50;;
61003;SDS011;46889;37.310;13.582;2022-11-09T11:22:14;7.45;;;1.50;;
61003;SDS011;46889;37.310;13.582;2022-11-09T11:27:43;8.35;;;1.70;;
61003;SDS011;46889;37.310;13.582;2022-11-09T11:30:14;11.02;;;1.70;;
61003;SDS011;46889;37.310;13.582;2022-11-09T11:32:53;5.65;;;1.80;;
61003;SDS011;46889;37.310;13.582;2022-11-09T11:52:06;8.88;;;1.63;;
61003;SDS011;46889;37.310;13.582;2022-11-09T11:57:36;9.30;;;1.73;;
61003;SDS011;46889;37.310;13.582;2022-11-09T12:00:22;6.90;;;1.52;;
61003;SDS011;46889;37.310;13.582;2022-11-09T12:02:57;6.70;;;1.40;;
61003;SDS011;46889;37.310;13.582;2022-11-09T12:08:45;7.45;;;1.55;;
61003;SDS011;46889;37.310;13.582;2022-11-09T12:11:31;8.32;;;1.80;;
61003;SDS011;46889;37.310;13.582;2022-11-09T12:17:06;7.68;;;1.60;;
61003;SDS011;46889;37.310;13.582;2022-11-09T12:25:28;12.05;;;2.10;;
61003;SDS011;46889;37.310;13.582;2022-11-09T12:34:58;8.77;;;1.83;;
61003;SDS011;46889;37.310;13.582;2022-11-09T12:40:12;8.20;;;1.42;;
61003;SDS011;46889;37.310;13.582;2022-11-09T12:42:50;15.05;;;1.88;;
61003;SDS011;46889;37.310;13.582;2022-11-09T12:45:31;9.82;;;1.30;;
61003;SDS011;46889;37.310;13.582;2022-11-09T12:48:00;8.82;;;1.90;;
61003;SDS011;46889;37.310;13.582;2022-11-09T12:50:49;14.02;;;1.83;;
61003;SDS011;46889;37.310;13.582;2022-11-09T12:53:15;8.95;;;1.55;;
61003;SDS011;46889;37.310;13.582;2022-11-09T12:58:31;13.50;;;2.08;;
61003;SDS011;46889;37.310;13.582;2022-11-09T13:00:59;9.13;;;1.55;;
61003;SDS011;46889;37.310;13.582;2022-11-09T13:03:29;6.03;;;1.60;;
61003;SDS011;46889;37.310;13.582;2022-11-09T13:08:56;9.20;;;1.83;;
61003;SDS011;46889;37.310;13.582;2022-11-09T13:12:26;5.55;;;1.80;;
61003;SDS011;46889;37.310;13.582;2022-11-09T13:18:01;10.50;;;1.75;;
61003;SDS011;46889;37.310;13.582;2022-11-09T13:20:47;8.73;;;1.80;;
61003;SDS011;46889;37.310;13.582;2022-11-09T13:23:25;12.55;;;2.40;;
61003;SDS011;46889;37.310;13.582;2022-11-09T13:26:00;9.63;;;2.10;;
61003;SDS011;46889;37.310;13.582;2022-11-09T13:30:59;9.75;;;2.28;;
61003;SDS011;46889;37.310;13.582;2022-11-09T13:33:26;9.15;;;2.20;;
61003;SDS011;46889;37.310;13.582;2022-11-09T13:38:24;14.48;;;2.75;;
61003;SDS011;46889;37.310;13.582;2022-11-09T13:40:56;7.35;;;2.30;;
61003;SDS011;46889;37.310;13.582;2022-11-09T13:43:34;7.30;;;1.67;;
61003;SDS011;46889;37.310;13.582;2022-11-09T13:46:03;7.30;;;1.70;;
61003;SDS011;46889;37.310;13.582;2022-11-09T13:48:48;8.95;;;2.17;;
61003;SDS011;46889;37.310;13.582;2022-11-09T13:54:31;9.93;;;1.80;;
61003;SDS011;46889;37.310;13.582;2022-11-09T13:56:57;10.93;;;1.63;;
61003;SDS011;46889;37.310;13.582;2022-11-09T13:59:35;11.27;;;2.20;;
61003;SDS011;46889;37.310;13.582;2022-11-09T14:02:25;7.25;;;1.95;;
61003;SDS011;46889;37.310;13.582;2022-11-09T14:04:51;9.80;;;1.77;;
61003;SDS011;46889;37.310;13.582;2022-11-09T14:07:22;11.38;;;2.00;;
61003;SDS011;46889;37.310;13.582;2022-11-09T14:12:46;10.35;;;1.73;;
61003;SDS011;46889;37.310;13.582;2022-11-09T14:18:54;9.88;;;2.05;;
61003;SDS011;46889;37.310;13.582;2022-11-09T14:21:52;9.90;;;1.70;;
61003;SDS011;46889;37.310;13.582;2022-11-09T14:24:19;8.13;;;1.67;;
61003;SDS011;46889;37.310;13.582;2022-11-09T14:27:10;4.93;;;1.65;;
61003;SDS011;46889;37.310;13.582;2022-11-09T14:30:01;9.85;;;2.10;;
61003;SDS011;46889;37.310;13.582;2022-11-09T14:32:30;11.68;;;2.35;;
61003;SDS011;46889;37.310;13.582;2022-11-09T14:36:00;10.75;;;2.53;;
61003;SDS011;46889;37.310;13.582;2022-11-09T14:38:01;5.07;;;1.52;;
61003;SDS011;46889;37.310;13.582;2022-11-09T14:40:45;11.02;;;1.70;;
61003;SDS011;46889;37.310;13.582;2022-11-09T14:43:22;9.30;;;1.70;;
61003;SDS011;46889;37.310;13.582;2022-11-09T14:45:58;6.60;;;1.60;;
61003;SDS011;46889;37.310;13.582;2022-11-09T14:48:27;8.98;;;1.92;;
61003;SDS011;46889;37.310;13.582;2022-11-09T14:50:56;8.38;;;1.85;;
61003;SDS011;46889;37.310;13.582;2022-11-09T14:53:28;9.70;;;1.63;;
61003;SDS011;46889;37.310;13.582;2022-11-09T14:55:58;9.90;;;1.75;;
61003;SDS011;46889;37.310;13.582;2022-11-09T14:58:29;10.18;;;1.90;;
61003;SDS011;46889;37.310;13.582;2022-11-09T15:01:07;9.70;;;1.85;;
61003;SDS011;46889;37.310;13.582;2022-11-09T15:03:40;6.10;;;1.40;;
61003;SDS011;46889;37.310;13.582;2022-11-09T15:06:10;10.07;;;2.13;;
61003;SDS011;46889;37.310;13.582;2022-11-09T15:08:48;9.57;;;1.80;;
61003;SDS011;46889;37.310;13.582;2022-11-09T15:11:19;9.70;;;1.80;;
61003;SDS011;46889;37.310;13.582;2022-11-09T15:13:46;10.43;;;2.17;;
61003;SDS011;46889;37.310;13.582;2022-11-09T15:16:19;11.90;;;1.67;;
61003;SDS011;46889;37.310;13.582;2022-11-09T15:18:47;7.10;;;1.52;;
61003;SDS011;46889;37.310;13.582;2022-11-09T15:24:03;9.57;;;1.90;;
61003;SDS011;46889;37.310;13.582;2022-11-09T15:26:39;7.50;;;1.40;;
61003;SDS011;46889;37.310;13.582;2022-11-09T15:29:27;12.68;;;1.98;;
61003;SDS011;46889;37.310;13.582;2022-11-09T15:32:00;12.00;;;1.92;;
61003;SDS011;46889;37.310;13.582;2022-11-09T15:37:20;12.63;;;1.75;;
61003;SDS011;46889;37.310;13.582;2022-11-09T15:39:46;10.50;;;1.80;;
61003;SDS011;46889;37.310;13.582;2022-11-09T15:42:12;11.10;;;1.52;;
61003;SDS011;46889;37.310;13.582;2022-11-09T15:44:38;7.60;;;1.70;;
61003;SDS011;46889;37.310;13.582;2022-11-09T15:47:14;7.40;;;1.70;;
61003;SDS011;46889;37.310;13.582;2022-11-09T15:49:47;10.05;;;2.17;;
61003;SDS011;46889;37.310;13.582;2022-11-09T15:52:13;8.85;;;1.88;;
61003;SDS011;46889;37.310;13.582;2022-11-09T15:54:39;9.23;;;2.28;;
61003;SDS011;46889;37.310;13.582;2022-11-09T15:57:05;13.10;;;2.60;;
61003;SDS011;46889;37.310;13.582;2022-11-09T15:59:31;11.52;;;2.35;;
61003;SDS011;46889;37.310;13.582;2022-11-09T16:01:57;14.23;;;2.58;;
61003;SDS011;46889;37.310;13.582;2022-11-09T16:04:24;8.70;;;2.72;;
61003;SDS011;46889;37.310;13.582;2022-11-09T16:06:50;9.68;;;3.03;;
61003;SDS011;46889;37.310;13.582;2022-11-09T16:09:16;11.32;;;2.50;;
61003;SDS011;46889;37.310;13.582;2022-11-09T16:11:42;9.48;;;2.20;;
61003;SDS011;46889;37.310;13.582;2022-11-09T16:14:08;10.85;;;2.60;;
61003;SDS011;46889;37.310;13.582;2022-11-09T16:16:35;17.25;;;3.55;;
61003;SDS011;46889;37.310;13.582;2022-11-09T16:19:01;10.20;;;3.22;;
61003;SDS011;46889;37.310;13.582;2022-11-09T16:21:27;7.50;;;3.20;;
61003;SDS011;46889;37.310;13.582;2022-11-09T16:23:53;12.10;;;3.03;;
61003;SDS011;46889;37.310;13.582;2022-11-09T16:26:19;13.07;;;2.97;;
61003;SDS011;46889;37.310;13.582;2022-11-09T16:28:47;8.55;;;2.60;;
61003;SDS011;46889;37.310;13.582;2022-11-09T16:31:13;11.75;;;2.45;;
61003;SDS011;46889;37.310;13.582;2022-11-09T16:33:41;11.23;;;2.88;;
61003;SDS011;46889;37.310;13.582;2022-11-09T16:36:14;12.07;;;2.17;;
61003;SDS011;46889;37.310;13.582;2022-11-09T16:38:44;8.77;;;2.30;;
61003;SDS011;46889;37.310;13.582;2022-11-09T16:41:15;10.95;;;2.28;;
61003;SDS011;46889;37.310;13.582;2022-11-09T16:43:41;10.43;;;2.40;;
61003;SDS011;46889;37.310;13.582;2022-11-09T16:46:10;10.27;;;2.40;;
61003;SDS011;46889;37.310;13.582;2022-11-09T16:48:38;14.10;;;2.60;;
61003;SDS011;46889;37.310;13.582;2022-11-09T16:51:04;16.50;;;2.58;;
61003;SDS011;46889;37.310;13.582;2022-11-09T16:53:31;11.15;;;2.05;;
61003;SDS011;46889;37.310;13.582;2022-11-09T16:55:57;7.75;;;1.95;;
61003;SDS011;46889;37.310;13.582;2022-11-09T16:58:23;10.55;;;1.98;;
61003;SDS011;46889;37.310;13.582;2022-11-09T17:00:49;12.93;;;2.05;;
61003;SDS011;46889;37.310;13.582;2022-11-09T17:03:16;11.73;;;2.33;;
61003;SDS011;46889;37.310;13.582;2022-11-09T17:05:42;8.23;;;1.75;;
61003;SDS011;46889;37.310;13.582;2022-11-09T17:08:08;12.38;;;2.08;;
61003;SDS011;46889;37.310;13.582;2022-11-09T17:10:42;12.50;;;2.22;;
61003;SDS011;46889;37.310;13.582;2022-11-09T17:13:09;12.35;;;2.17;;
61003;SDS011;46889;37.310;13.582;2022-11-09T17:15:40;10.25;;;2.28;;
61003;SDS011;46889;37.310;13.582;2022-11-09T17:18:10;9.20;;;2.08;;
61003;SDS011;46889;37.310;13.582;2022-11-09T17:20:44;11.05;;;2.20;;
61003;SDS011;46889;37.310;13.582;2022-11-09T17:23:15;10.10;;;2.00;;
61003;SDS011;46889;37.310;13.582;2022-11-09T17:26:04;9.73;;;2.15;;
61003;SDS011;46889;37.310;13.582;2022-11-09T17:28:30;9.63;;;2.03;;
61003;SDS011;46889;37.310;13.582;2022-11-09T17:30:57;17.08;;;2.22;;
61003;SDS011;46889;37.310;13.582;2022-11-09T17:33:23;11.98;;;2.20;;
61003;SDS011;46889;37.310;13.582;2022-11-09T17:35:59;14.23;;;2.47;;